Time;durP1;ratioP1;P1;durP2;ratioP2;P2;SDS_P1;SDS_P2;PMS_P1;PMS_P2;Temp;Humidity;BMP_temperature;BMP_pressure;BME280_temperature;BME280_humidity;BME280_pressure;Samples;Min_cycle;Max_cycle;Signal;HPM_P1;HPM_P2
2021/10/04 00:00:19;;;;;;;1999.90;999.90;;;10.90;99.90;;;;;;5092003;28;20036;-81
2021/10/04 00:02:45;;;;;;;1999.90;999.90;;;10.90;99.90;;;;;;5093317;28;20016;-81
2021/10/04 00:05:11;;;;;;;1999.90;999.90;;;10.90;99.90;;;;;;5091859;28;20422;-81
2021/10/04 00:07:38;;;;;;;1999.90;999.90;;;10.80;99.90;;;;;;5092037;28;20103;-80
2021/10/04 00:10:07;;;;;;;1999.90;999.90;;;10.80;99.90;;;;;;5091846;28;20077;-81
2021/10/04 00:12:33;;;;;;;1999.90;999.90;;;10.70;99.90;;;;;;5093160;28;20023;-81
2021/10/04 00:14:59;;;;;;;1999.90;999.90;;;10.70;99.90;;;;;;5091828;28;20492;-80
2021/10/04 00:17:25;;;;;;;1999.90;999.90;;;10.60;99.90;;;;;;5092138;28;20028;-80
2021/10/04 00:19:50;;;;;;;1999.90;999.90;;;10.60;99.90;;;;;;5095388;28;20036;-82
2021/10/04 00:22:16;;;;;;;1999.90;999.90;;;10.60;99.90;;;;;;5102625;28;20020;-83
2021/10/04 00:24:42;;;;;;;1999.90;999.90;;;10.60;99.90;;;;;;5096274;28;20105;-82
2021/10/04 00:27:07;;;;;;;1999.90;999.90;;;10.60;99.90;;;;;;5096158;28;20028;-81
2021/10/04 00:29:33;;;;;;;1999.90;999.90;;;10.60;99.90;;;;;;5097170;28;20526;-81
2021/10/04 00:31:59;;;;;;;1999.90;999.90;;;10.60;99.90;;;;;;5096073;28;20028;-81
2021/10/04 00:34:25;;;;;;;1999.90;999.90;;;10.60;99.90;;;;;;5096042;28;20532;-81
2021/10/04 00:36:50;;;;;;;1999.90;999.90;;;10.50;99.90;;;;;;5095929;28;20024;-80
2021/10/04 00:39:16;;;;;;;1999.90;999.90;;;10.50;99.90;;;;;;5095903;28;20030;-81
2021/10/04 00:41:43;;;;;;;1999.90;999.90;;;10.50;99.90;;;;;;5096283;28;20028;-81
2021/10/04 00:44:09;;;;;;;1999.90;999.90;;;10.50;99.90;;;;;;5111565;28;20020;-81
2021/10/04 00:46:35;;;;;;;1999.90;999.90;;;10.50;99.90;;;;;;5112327;28;20027;-80
2021/10/04 00:49:01;;;;;;;1999.90;999.90;;;10.50;99.90;;;;;;5111755;28;20114;-80
2021/10/04 00:51:27;;;;;;;1999.90;999.90;;;10.50;99.90;;;;;;5112104;28;20042;-80
2021/10/04 00:53:53;;;;;;;1999.90;999.90;;;10.50;99.90;;;;;;5113444;28;20020;-81
2021/10/04 00:56:20;;;;;;;1999.90;999.90;;;10.50;99.90;;;;;;5113153;28;20484;-80
2021/10/04 00:58:47;;;;;;;1999.90;999.90;;;10.40;99.90;;;;;;5112451;28;20028;-81
2021/10/04 01:01:13;;;;;;;1999.90;999.90;;;10.40;99.90;;;;;;5112991;28;20052;-80
2021/10/04 01:03:38;;;;;;;1999.90;999.90;;;10.40;99.90;;;;;;5113048;28;20027;-80
2021/10/04 01:06:04;;;;;;;1999.90;999.90;;;10.40;99.90;;;;;;5112808;28;20012;-80
2021/10/04 01:08:31;;;;;;;1999.90;999.90;;;10.50;99.90;;;;;;5097518;28;20026;-81
2021/10/04 01:10:57;;;;;;;1999.90;999.90;;;10.40;99.90;;;;;;5096941;28;20391;-81
2021/10/04 01:13:23;;;;;;;1999.90;999.90;;;10.40;99.90;;;;;;5096457;28;20079;-80
2021/10/04 01:15:49;;;;;;;1999.90;999.90;;;10.40;99.90;;;;;;5097831;28;20471;-82
2021/10/04 01:18:14;;;;;;;1999.90;999.90;;;10.50;99.90;;;;;;5096086;28;20399;-81
2021/10/04 01:20:41;;;;;;;1999.90;999.90;;;10.50;99.90;;;;;;5096201;28;20093;-82
2021/10/04 01:23:06;;;;;;;1999.90;999.90;;;10.40;99.90;;;;;;5095777;28;20043;-82
2021/10/04 01:25:32;;;;;;;1999.90;999.90;;;10.30;99.90;;;;;;5095897;28;20038;-82
2021/10/04 01:27:58;;;;;;;1999.90;999.90;;;10.30;99.90;;;;;;5095873;28;20021;-81
2021/10/04 01:30:27;;;;;;;1999.90;999.90;;;10.30;99.90;;;;;;5096635;28;20377;-81
2021/10/04 01:32:53;;;;;;;1999.90;999.90;;;10.20;99.90;;;;;;5094586;28;20051;-81
2021/10/04 01:35:19;;;;;;;1999.90;999.90;;;10.20;99.90;;;;;;5094833;28;20063;-83
2021/10/04 01:37:45;;;;;;;1999.90;999.90;;;10.20;99.90;;;;;;5095023;28;20016;-80
2021/10/04 01:40:13;;;;;;;1999.90;999.90;;;10.10;99.90;;;;;;5094725;28;20364;-81
2021/10/04 01:42:40;;;;;;;1999.90;999.90;;;10.10;99.90;;;;;;5095810;28;20475;-81
2021/10/04 01:45:12;;;;;;;1999.90;999.90;;;10.10;99.90;;;;;;5094680;28;20028;-82
2021/10/04 01:47:38;;;;;;;1999.90;999.90;;;10.10;99.90;;;;;;5094683;28;20062;-83
2021/10/04 01:50:06;;;;;;;1999.90;999.90;;;10.10;99.90;;;;;;5094634;28;20048;-82
2021/10/04 01:52:32;;;;;;;1999.90;999.90;;;10.20;99.90;;;;;;5094322;28;20080;-81
2021/10/04 01:54:58;;;;;;;1999.90;999.90;;;10.20;99.90;;;;;;5095525;28;20032;-81
2021/10/04 01:57:24;;;;;;;1999.90;999.90;;;10.10;99.90;;;;;;5094359;28;20035;-82
2021/10/04 01:59:50;;;;;;;1999.90;999.90;;;10.10;99.90;;;;;;5096539;28;20035;-85
2021/10/04 02:02:16;;;;;;;1999.90;999.90;;;10.10;99.90;;;;;;5095447;28;20371;-81
2021/10/04 02:04:41;;;;;;;1999.90;999.90;;;10.00;99.90;;;;;;5094533;28;20113;-82
2021/10/04 02:07:07;;;;;;;1999.90;999.90;;;10.00;99.90;;;;;;5093956;28;20020;-81
2021/10/04 02:09:33;;;;;;;1999.90;999.90;;;10.00;99.90;;;;;;5095272;28;20050;-81
2021/10/04 02:11:59;;;;;;;1999.90;999.90;;;10.00;99.90;;;;;;5094129;28;20036;-81
2021/10/04 02:14:24;;;;;;;1999.90;999.90;;;10.00;99.90;;;;;;5093915;28;20028;-81
2021/10/04 02:16:50;;;;;;;1999.90;999.90;;;10.00;99.90;;;;;;5094234;28;20055;-81
2021/10/04 02:19:16;;;;;;;1999.90;999.90;;;9.90;99.90;;;;;;5093823;28;20551;-81
2021/10/04 02:21:42;;;;;;;1999.90;999.90;;;9.90;99.90;;;;;;5093692;28;20513;-81
2021/10/04 02:24:08;;;;;;;1999.90;999.90;;;9.90;99.90;;;;;;5094562;28;20040;-81
2021/10/04 02:26:34;;;;;;;1999.90;999.90;;;9.90;99.90;;;;;;5093630;28;20020;-81
2021/10/04 02:29:00;;;;;;;1999.90;999.90;;;10.00;99.90;;;;;;5093734;28;20562;-81
2021/10/04 02:31:26;;;;;;;1999.90;999.90;;;9.90;99.90;;;;;;5093749;28;20023;-81
2021/10/04 02:33:52;;;;;;;1999.90;999.90;;;9.80;99.90;;;;;;5093856;28;20035;-81
2021/10/04 02:36:23;;;;;;;1999.90;999.90;;;9.90;99.90;;;;;;5093549;28;20028;-80
2021/10/04 02:38:51;;;;;;;1999.90;999.90;;;9.80;99.90;;;;;;5093438;28;20020;-80
2021/10/04 02:41:17;;;;;;;1999.90;999.90;;;9.80;99.90;;;;;;5092968;28;20348;-81
2021/10/04 02:43:43;;;;;;;1999.90;999.90;;;9.80;99.90;;;;;;5094342;28;20016;-82
2021/10/04 02:46:08;;;;;;;1999.90;999.90;;;9.70;99.90;;;;;;5093221;28;20502;-83
2021/10/04 02:48:34;;;;;;;1999.90;999.90;;;9.70;99.90;;;;;;5093340;28;20375;-80
2021/10/04 02:51:00;;;;;;;1999.90;999.90;;;9.70;99.90;;;;;;5093141;28;20035;-80
2021/10/04 02:53:26;;;;;;;1999.90;999.90;;;9.70;99.90;;;;;;5093294;28;20957;-80
2021/10/04 02:55:52;;;;;;;1999.90;999.90;;;9.70;99.90;;;;;;5094662;28;20019;-82
2021/10/04 02:58:18;;;;;;;1999.90;999.90;;;9.80;99.90;;;;;;5093235;28;20026;-83
2021/10/04 03:00:44;;;;;;;1999.90;999.90;;;9.70;99.90;;;;;;5092942;28;20494;-81
2021/10/04 03:03:10;;;;;;;1999.90;999.90;;;9.70;99.90;;;;;;5092754;28;20435;-79
2021/10/04 03:05:36;;;;;;;1999.90;999.90;;;9.60;99.90;;;;;;5093403;28;20141;-81
2021/10/04 03:08:03;;;;;;;1999.90;999.90;;;9.60;99.90;;;;;;5092983;28;20016;-81
2021/10/04 03:10:29;;;;;;;1999.90;999.90;;;9.60;99.90;;;;;;5092822;28;20074;-82
2021/10/04 03:12:55;;;;;;;1999.90;999.90;;;9.60;99.90;;;;;;5092832;28;20093;-82
2021/10/04 03:15:21;;;;;;;1999.90;999.90;;;9.60;99.90;;;;;;5093566;28;20028;-83
2021/10/04 03:17:47;;;;;;;1999.90;999.90;;;9.60;99.90;;;;;;5092991;28;20082;-81
2021/10/04 03:20:13;;;;;;;1999.90;999.90;;;9.50;99.90;;;;;;5092459;28;20035;-82
2021/10/04 03:22:38;;;;;;;1999.90;999.90;;;9.40;99.90;;;;;;5092542;28;20403;-81
2021/10/04 03:25:06;;;;;;;1999.90;999.90;;;9.40;99.90;;;;;;5093361;28;20127;-81
2021/10/04 03:27:32;;;;;;;1999.90;999.90;;;9.50;99.90;;;;;;5092400;28;20024;-82
2021/10/04 03:29:58;;;;;;;1999.90;999.90;;;9.40;99.90;;;;;;5092490;28;20216;-82
2021/10/04 03:32:24;;;;;;;1999.90;999.90;;;9.40;99.90;;;;;;5093742;28;20020;-81
2021/10/04 03:34:49;;;;;;;1999.90;999.90;;;9.40;99.90;;;;;;5092747;28;20425;-81
2021/10/04 03:37:16;;;;;;;1999.90;999.90;;;9.30;99.90;;;;;;5093977;28;20063;-82
2021/10/04 03:39:42;;;;;;;1999.90;999.90;;;9.40;99.90;;;;;;5092508;28;20078;-80
2021/10/04 03:42:08;;;;;;;1999.90;999.90;;;9.30;99.90;;;;;;5092494;28;20017;-82
2021/10/04 03:44:34;;;;;;;1999.90;999.90;;;9.30;99.90;;;;;;5093672;28;20365;-81
2021/10/04 03:47:00;;;;;;;1999.90;999.90;;;9.20;99.90;;;;;;5092587;28;20054;-80
2021/10/04 03:49:26;;;;;;;1999.90;999.90;;;9.20;99.90;;;;;;5092382;28;20024;-81
2021/10/04 03:51:52;;;;;;;1999.90;999.90;;;9.20;99.90;;;;;;5092223;28;20027;-80
2021/10/04 03:54:18;;;;;;;1999.90;999.90;;;9.20;99.90;;;;;;5091385;28;20090;-83
2021/10/04 03:56:43;;;;;;;1999.90;999.90;;;9.20;99.90;;;;;;5092664;28;20031;-80
2021/10/04 03:59:09;;;;;;;1999.90;999.90;;;9.20;99.90;;;;;;5093772;28;20036;-81
2021/10/04 04:01:35;;;;;;;1999.90;999.90;;;9.10;99.90;;;;;;5092666;28;20058;-81
2021/10/04 04:04:01;;;;;;;1999.90;999.90;;;9.20;99.90;;;;;;5092914;28;20379;-81
2021/10/04 04:06:26;;;;;;;1999.90;999.90;;;9.10;99.90;;;;;;5093623;28;20047;-81
2021/10/04 04:08:52;;;;;;;1999.90;999.90;;;9.20;99.90;;;;;;5092296;28;20058;-81
2021/10/04 04:11:18;;;;;;;1999.90;999.90;;;9.10;99.90;;;;;;5093381;28;20094;-81
2021/10/04 04:13:43;;;;;;;1999.90;999.90;;;9.10;99.90;;;;;;5092412;28;20016;-82
2021/10/04 04:16:09;;;;;;;1999.90;999.90;;;9.10;99.90;;;;;;5092079;28;20544;-82
2021/10/04 04:18:34;;;;;;;1999.90;999.90;;;9.00;99.90;;;;;;5091687;28;20372;-83
2021/10/04 04:21:00;;;;;;;1999.90;999.90;;;9.00;99.90;;;;;;5092466;28;20063;-82
2021/10/04 04:23:26;;;;;;;1999.90;999.90;;;9.00;99.90;;;;;;5091100;28;20059;-81
2021/10/04 04:25:52;;;;;;;1999.90;999.90;;;9.00;99.90;;;;;;5092642;28;20425;-81
2021/10/04 04:28:18;;;;;;;1999.90;999.90;;;9.00;99.90;;;;;;5091462;28;20417;-81
2021/10/04 04:30:44;;;;;;;1999.90;999.90;;;9.00;99.90;;;;;;5091149;28;20020;-80
2021/10/04 04:33:09;;;;;;;1999.90;999.90;;;9.10;99.90;;;;;;5091800;28;20028;-81
2021/10/04 04:35:35;;;;;;;1999.90;999.90;;;9.00;99.90;;;;;;5093207;28;20074;-82
2021/10/04 04:38:01;;;;;;;1999.90;999.90;;;8.90;99.90;;;;;;5092108;28;20356;-84
2021/10/04 04:40:27;;;;;;;1999.90;999.90;;;8.90;99.90;;;;;;5091849;28;20039;-81
2021/10/04 04:42:52;;;;;;;1999.90;999.90;;;8.90;99.90;;;;;;5093014;28;20059;-84
2021/10/04 04:45:20;;;;;;;1999.90;999.90;;;8.90;99.90;;;;;;5092393;28;20024;-82
2021/10/04 04:47:47;;;;;;;1999.90;999.90;;;8.90;99.90;;;;;;5092338;28;20021;-84
2021/10/04 04:50:15;;;;;;;1999.90;999.90;;;8.90;99.90;;;;;;5092143;28;20035;-82
2021/10/04 04:52:41;;;;;;;1999.90;999.90;;;8.90;99.90;;;;;;5092580;28;20379;-82
2021/10/04 04:55:07;;;;;;;1999.90;999.90;;;8.90;99.90;;;;;;5091863;28;20020;-80
2021/10/04 04:57:33;;;;;;;1999.90;999.90;;;8.90;99.90;;;;;;5091973;28;20514;-81
2021/10/04 04:59:59;;;;;;;1999.90;999.90;;;8.90;99.90;;;;;;5091841;28;20506;-82
2021/10/04 05:02:26;;;;;;;1999.90;999.90;;;8.90;99.90;;;;;;5091735;28;20024;-81
2021/10/04 05:04:52;;;;;;;1999.90;999.90;;;9.00;99.90;;;;;;5093326;28;20465;-81
2021/10/04 05:07:17;;;;;;;1999.90;999.90;;;9.10;99.90;;;;;;5095743;28;20020;-78
2021/10/04 05:09:43;;;;;;;1999.90;999.90;;;10.10;99.90;;;;;;5095195;28;20178;-79
2021/10/04 05:12:09;;;;;;;1999.90;999.90;;;9.90;99.90;;;;;;5096435;28;20020;-81
2021/10/04 05:14:35;;;;;;;1999.90;999.90;;;9.70;99.90;;;;;;5100055;28;20077;-82
2021/10/04 05:17:00;;;;;;;1999.90;999.90;;;9.50;99.90;;;;;;5094164;28;20051;-79
2021/10/04 05:19:26;;;;;;;1999.90;999.90;;;9.40;99.90;;;;;;5092962;28;20042;-81
2021/10/04 05:21:52;;;;;;;1999.90;999.90;;;9.30;99.90;;;;;;5093457;28;20024;-81
2021/10/04 05:24:17;;;;;;;1999.90;999.90;;;9.30;99.90;;;;;;5093692;28;20065;-80
2021/10/04 05:26:43;;;;;;;1999.90;999.90;;;9.20;99.90;;;;;;5094283;28;20028;-82
2021/10/04 05:29:09;;;;;;;1999.90;999.90;;;9.10;99.90;;;;;;5094384;28;20036;-79
2021/10/04 05:31:35;;;;;;;1999.90;999.90;;;9.10;99.90;;;;;;5094426;28;20028;-79
2021/10/04 05:34:02;;;;;;;1999.90;999.90;;;9.20;99.90;;;;;;5095320;28;20492;-79
2021/10/04 05:36:30;;;;;;;1999.90;999.90;;;9.20;99.90;;;;;;5094261;28;20118;-80
2021/10/04 05:38:56;;;;;;;1999.90;999.90;;;9.20;99.90;;;;;;5094543;28;20177;-80
2021/10/04 05:41:22;;;;;;;1999.90;999.90;;;9.20;99.90;;;;;;5095583;28;20064;-82
2021/10/04 05:43:47;;;;;;;1999.90;999.90;;;9.20;99.90;;;;;;5094234;28;20029;-82
2021/10/04 05:46:13;;;;;;;1999.90;999.90;;;9.30;99.90;;;;;;5095372;28;20028;-80
2021/10/04 05:48:39;;;;;;;1999.90;999.90;;;9.30;99.90;;;;;;5093947;28;20023;-81
2021/10/04 05:51:05;;;;;;;1999.90;999.90;;;9.30;99.90;;;;;;5094371;28;20536;-78
2021/10/04 05:53:32;;;;;;;1999.90;999.90;;;9.30;99.90;;;;;;5094938;28;20371;-83
2021/10/04 05:55:58;;;;;;;1999.90;999.90;;;9.40;99.90;;;;;;5094165;28;20020;-81
2021/10/04 05:58:24;;;;;;;1999.90;999.90;;;9.40;99.90;;;;;;5094225;28;20020;-80
2021/10/04 06:00:50;;;;;;;1999.90;999.90;;;9.50;99.90;;;;;;5094581;28;20110;-79
2021/10/04 06:03:16;;;;;;;1999.90;999.90;;;9.60;99.90;;;;;;5093262;28;20627;-80
2021/10/04 06:05:42;;;;;;;1999.90;999.90;;;9.70;99.90;;;;;;5093505;28;20119;-80
2021/10/04 06:08:07;;;;;;;1999.90;999.90;;;9.80;99.90;;;;;;5093338;28;20028;-81
2021/10/04 06:10:33;;;;;;;1999.90;999.90;;;9.80;99.90;;;;;;5093604;28;20036;-81
2021/10/04 06:13:00;;;;;;;1999.90;999.90;;;9.80;99.90;;;;;;5093319;28;20047;-78
2021/10/04 06:15:26;;;;;;;1999.90;999.90;;;9.90;99.90;;;;;;5093299;28;20024;-79
2021/10/04 06:17:52;;;;;;;1999.90;999.90;;;10.00;99.90;;;;;;5092513;28;20024;-80
2021/10/04 06:20:18;;;;;;;1999.90;999.90;;;10.00;99.90;;;;;;5092882;28;20043;-80
2021/10/04 06:22:44;;;;;;;1999.90;999.90;;;10.10;99.90;;;;;;5093419;28;20464;-80
2021/10/04 06:25:15;;;;;;;1999.90;999.90;;;11.60;99.90;;;;;;5093296;28;20425;-80
2021/10/04 06:27:42;;;;;;;1999.90;999.90;;;11.40;99.90;;;;;;5093790;28;20111;-79
2021/10/04 06:30:09;;;;;;;1999.90;999.90;;;11.30;99.90;;;;;;5093051;28;20031;-78
2021/10/04 06:32:35;;;;;;;1999.90;999.90;;;11.20;99.90;;;;;;5094232;28;20032;-79
2021/10/04 06:35:01;;;;;;;1999.90;999.90;;;11.20;99.90;;;;;;5094081;28;20028;-81
2021/10/04 06:37:27;;;;;;;1999.90;999.90;;;11.20;99.90;;;;;;5092987;28;20029;-81
2021/10/04 06:39:52;;;;;;;1999.90;999.90;;;11.20;99.90;;;;;;5092914;28;20044;-80
2021/10/04 06:42:18;;;;;;;1999.90;999.90;;;11.20;99.90;;;;;;5092673;28;20075;-79
2021/10/04 06:44:44;;;;;;;1999.90;999.90;;;11.30;99.90;;;;;;5092445;28;20176;-80
2021/10/04 06:47:10;;;;;;;1999.90;999.90;;;11.40;99.90;;;;;;5092783;28;20020;-82
2021/10/04 06:49:35;;;;;;;1999.90;999.90;;;11.50;99.90;;;;;;5094145;28;20028;-79
2021/10/04 06:52:03;;;;;;;1999.90;999.90;;;11.80;99.90;;;;;;5094103;28;20024;-80
2021/10/04 06:54:29;;;;;;;1999.90;999.90;;;13.20;99.90;;;;;;5091697;28;20056;-79
2021/10/04 06:56:55;;;;;;;1999.90;999.90;;;13.10;99.90;;;;;;5092615;28;20471;-79
2021/10/04 06:59:20;;;;;;;1999.90;999.90;;;13.00;99.90;;;;;;5094229;28;20024;-81
2021/10/04 07:01:46;;;;;;;1999.90;999.90;;;13.00;99.90;;;;;;5092341;28;20379;-80
2021/10/04 07:04:12;;;;;;;1999.90;999.90;;;12.90;99.90;;;;;;5091927;28;20383;-82
2021/10/04 07:06:38;;;;;;;1999.90;999.90;;;12.90;99.90;;;;;;5093432;28;20031;-82
2021/10/04 07:09:03;;;;;;;1999.90;999.90;;;12.90;99.90;;;;;;5093288;28;20020;-79
2021/10/04 07:11:29;;;;;;;1999.90;999.90;;;12.90;99.90;;;;;;5093286;28;20111;-81
2021/10/04 07:13:56;;;;;;;1999.90;999.90;;;12.90;99.90;;;;;;5092897;28;20025;-80
2021/10/04 07:16:22;;;;;;;1999.90;999.90;;;13.00;99.90;;;;;;5093481;28;20020;-83
2021/10/04 07:18:48;;;;;;;1999.90;999.90;;;13.00;99.90;;;;;;5092091;28;20024;-80
2021/10/04 07:21:13;;;;;;;1999.90;999.90;;;13.10;99.90;;;;;;5092266;28;20062;-81
2021/10/04 07:23:39;;;;;;;1999.90;999.90;;;13.20;99.90;;;;;;5092007;28;20051;-83
2021/10/04 07:26:06;;;;;;;1999.90;999.90;;;13.30;99.90;;;;;;5091872;28;20567;-80
2021/10/04 07:28:33;;;;;;;1999.90;999.90;;;13.40;99.90;;;;;;5091707;28;20106;-82
2021/10/04 07:31:00;;;;;;;1999.90;999.90;;;13.50;99.90;;;;;;5092291;28;20170;-82
2021/10/04 07:33:26;;;;;;;1999.90;999.90;;;13.60;99.90;;;;;;5091740;28;20052;-82
2021/10/04 07:35:52;;;;;;;1999.90;999.90;;;13.70;99.90;;;;;;5092437;28;20108;-83
2021/10/04 07:38:18;;;;;;;1999.90;999.90;;;13.80;99.90;;;;;;5092540;28;20024;-81
2021/10/04 07:40:44;;;;;;;1999.90;999.90;;;13.90;99.90;;;;;;5093053;28;20043;-82
2021/10/04 07:43:10;;;;;;;1999.90;999.90;;;14.00;99.90;;;;;;5092820;28;20387;-82
2021/10/04 07:45:36;;;;;;;1999.90;999.90;;;14.10;99.90;;;;;;5093694;28;20479;-82
2021/10/04 07:48:02;;;;;;;1999.90;999.90;;;14.30;99.90;;;;;;5093399;28;20051;-80
2021/10/04 07:50:28;;;;;;;1999.90;999.90;;;14.40;99.90;;;;;;5094834;28;20024;-80
2021/10/04 07:52:54;;;;;;;1999.90;999.90;;;15.30;99.90;;;;;;5093241;28;20027;-81
2021/10/04 07:55:22;;;;;;;1999.90;999.90;;;15.40;99.90;;;;;;5092753;28;20024;-83
2021/10/04 07:57:51;;;;;;;1999.90;999.90;;;15.40;99.90;;;;;;5091653;28;20123;-78
2021/10/04 08:00:18;;;;;;;1999.90;999.90;;;15.40;99.90;;;;;;5092700;28;20482;-78
2021/10/04 08:02:44;;;;;;;1999.90;999.90;;;15.50;99.90;;;;;;5092452;28;20024;-74
2021/10/04 08:05:10;;;;;;;1999.90;999.90;;;15.60;99.90;;;;;;5092386;28;20379;-78
2021/10/04 08:07:36;;;;;;;1999.90;999.90;;;15.70;99.90;;;;;;5092561;28;20020;-76
2021/10/04 08:10:04;;;;;;;1999.90;999.90;;;15.80;99.90;;;;;;5092692;28;20027;-77
2021/10/04 08:12:29;;;;;;;1999.90;999.90;;;15.90;99.90;;;;;;5092712;28;20046;-78
2021/10/04 08:14:55;;;;;;;1999.90;999.90;;;16.00;99.90;;;;;;5092413;28;20422;-76
2021/10/04 08:17:22;;;;;;;1999.90;999.90;;;16.10;99.90;;;;;;5092548;28;20035;-80
2021/10/04 08:19:48;;;;;;;1999.90;999.90;;;16.20;99.90;;;;;;5091656;28;20111;-81
2021/10/04 08:22:14;;;;;;;1999.90;999.90;;;16.30;99.90;;;;;;5091751;28;20043;-82
2021/10/04 08:24:40;;;;;;;1999.90;999.90;;;16.50;99.90;;;;;;5091360;28;20131;-80
2021/10/04 08:27:06;;;;;;;1999.90;999.90;;;16.60;99.90;;;;;;5092817;28;20095;-80
2021/10/04 08:29:32;;;;;;;1999.90;999.90;;;16.70;99.90;;;;;;5091380;28;20137;-79
2021/10/04 08:31:57;;;;;;;1999.90;999.90;;;16.80;99.90;;;;;;5091464;28;20049;-78
2021/10/04 08:34:23;;;;;;;1999.90;999.90;;;16.90;99.90;;;;;;5091216;28;20016;-78
2021/10/04 08:36:49;;;;;;;1999.90;999.90;;;17.00;99.90;;;;;;5092555;28;20031;-80
2021/10/04 08:39:16;;;;;;;1999.90;999.90;;;17.10;99.90;;;;;;5091684;28;20047;-81
2021/10/04 08:41:42;;;;;;;1999.90;999.90;;;17.20;99.90;;;;;;5095107;28;20032;-78
2021/10/04 08:44:11;;;;;;;1999.90;999.90;;;17.30;99.90;;;;;;5095759;28;20370;-80
2021/10/04 08:46:41;;;;;;;1999.90;999.90;;;17.50;99.90;;;;;;5095196;28;20028;-75
2021/10/04 08:49:07;;;;;;;1999.90;999.90;;;17.50;99.90;;;;;;5095855;28;20389;-75
2021/10/04 08:51:33;;;;;;;1999.90;999.90;;;17.70;99.90;;;;;;5096199;28;20375;-73
2021/10/04 08:53:59;;;;;;;1999.90;999.90;;;17.80;99.90;;;;;;5096098;28;20028;-75
2021/10/04 08:56:25;;;;;;;1999.90;999.90;;;18.00;99.90;;;;;;5096211;28;20463;-76
2021/10/04 08:58:50;;;;;;;1999.90;999.90;;;18.30;99.90;;;;;;5095872;28;20088;-73
2021/10/04 09:01:23;;;;;;;1999.90;999.90;;;18.50;99.90;;;;;;5095647;28;20437;-74
2021/10/04 09:03:55;;;;;;;1999.90;999.90;;;18.60;99.90;;;;;;5096005;28;20020;-75
2021/10/04 09:06:32;;;;;;;1999.90;999.90;;;18.80;99.90;;;;;;5099225;28;20055;-79
2021/10/04 09:09:11;;;;;;;1999.90;999.90;;;19.10;99.90;;;;;;5095612;28;20055;-79
2021/10/04 09:11:49;;;;;;;1999.90;999.90;;;19.30;99.90;;;;;;5100422;28;20027;-80
2021/10/04 09:14:27;;;;;;;1999.90;999.90;;;19.40;99.90;;;;;;5095167;28;20020;-77
2021/10/04 09:17:01;;;;;;;1999.90;999.90;;;19.50;99.90;;;;;;5094987;28;20088;-79
2021/10/04 09:19:35;;;;;;;1999.90;999.90;;;19.60;99.90;;;;;;5094812;28;20020;-79
2021/10/04 09:22:11;;;;;;;1999.90;999.90;;;19.70;99.90;;;;;;5096254;28;20106;-77
2021/10/04 09:24:43;;;;;;;1999.90;999.90;;;19.80;99.90;;;;;;5096640;28;20060;-78
2021/10/04 09:27:32;;;;;;;1999.90;999.90;;;19.90;98.40;;;;;;5096441;28;20054;-76
2021/10/04 09:30:00;;;;;;;1999.90;999.90;;;19.90;98.30;;;;;;5094474;28;20032;-78
2021/10/04 09:32:33;;;;;;;1999.90;999.90;;;20.20;97.00;;;;;;5095717;28;20095;-77
2021/10/04 09:35:16;;;;;;;1999.90;999.90;;;20.40;96.90;;;;;;5097657;28;20024;-77
2021/10/04 09:37:43;;;;;;;1999.90;999.90;;;20.50;97.90;;;;;;5100633;28;20024;-81
2021/10/04 09:40:37;;;;;;;1999.90;999.90;;;20.60;96.00;;;;;;5096469;28;20036;-78
2021/10/04 09:43:06;;;;;;;1999.90;999.90;;;20.60;96.20;;;;;;5095917;28;20052;-77
2021/10/04 09:45:33;;;;;;;1999.90;999.90;;;20.80;95.20;;;;;;5094946;28;20038;-78
2021/10/04 09:48:13;;;;;;;1999.90;999.90;;;20.80;94.80;;;;;;5094914;28;20028;-77
2021/10/04 09:50:41;;;;;;;1999.90;999.90;;;20.90;94.60;;;;;;5094016;28;20024;-78
2021/10/04 09:53:12;;;;;;;1999.90;999.90;;;21.00;94.60;;;;;;5094331;28;20471;-78
2021/10/04 09:55:43;;;;;;;1999.90;999.90;;;21.00;94.00;;;;;;5095808;28;20020;-79
2021/10/04 09:58:14;;;;;;;1999.90;999.90;;;21.00;94.80;;;;;;5094427;28;20526;-77
2021/10/04 10:00:50;;;;;;;1999.90;999.90;;;21.10;95.00;;;;;;5098158;28;20039;-79
2021/10/04 10:03:18;;;;;;;1999.90;999.90;;;21.30;95.90;;;;;;5094662;28;20027;-78
2021/10/04 10:05:49;;;;;;;1999.90;999.90;;;21.40;94.60;;;;;;5094718;28;20039;-76
2021/10/04 10:08:15;;;;;;;1999.90;999.90;;;21.50;93.50;;;;;;5093977;28;20051;-78
2021/10/04 10:10:44;;;;;;;1999.90;999.90;;;21.50;93.30;;;;;;5094299;28;20396;-77
2021/10/04 10:13:13;;;;;;;1999.90;999.90;;;21.50;93.50;;;;;;5094002;28;20066;-77
2021/10/04 10:15:41;;;;;;;1999.90;999.90;;;21.60;93.80;;;;;;5094111;28;20023;-77
2021/10/04 10:18:20;;;;;;;1999.90;999.90;;;21.70;93.50;;;;;;5094099;28;20506;-77
2021/10/04 10:20:54;;;;;;;1999.90;999.90;;;21.70;93.00;;;;;;5093816;28;20044;-77
2021/10/04 10:23:43;;;;;;;1999.90;999.90;;;21.80;93.30;;;;;;5093154;28;20052;-76
2021/10/04 10:26:24;;;;;;;1999.90;999.90;;;21.90;93.60;;;;;;5094543;28;20020;-81
2021/10/04 10:28:50;;;;;;;1999.90;999.90;;;21.90;93.30;;;;;;5094663;28;20403;-78
2021/10/04 10:31:16;;;;;;;1999.90;999.90;;;22.10;92.90;;;;;;5093990;28;20020;-80
2021/10/04 10:33:51;;;;;;;1999.90;999.90;;;22.10;92.60;;;;;;5093263;28;20495;-83
2021/10/04 10:36:38;;;;;;;1999.90;999.90;;;22.20;92.50;;;;;;5093279;28;20016;-81
2021/10/04 10:39:06;;;;;;;1999.90;999.90;;;22.30;92.90;;;;;;5094573;28;20107;-81
2021/10/04 10:41:34;;;;;;;1999.90;999.90;;;22.40;92.40;;;;;;5094669;28;20036;-84
2021/10/04 10:44:12;;;;;;;1999.90;999.90;;;22.50;92.30;;;;;;5092764;28;20021;-81
2021/10/04 10:46:55;;;;;;;1999.90;999.90;;;22.50;91.90;;;;;;5093556;28;20025;-80
2021/10/04 10:49:57;;;;;;;1999.90;999.90;;;22.70;91.70;;;;;;5094614;28;20027;-83
2021/10/04 10:52:26;;;;;;;1999.90;999.90;;;22.70;91.80;;;;;;5093055;28;20024;-83
2021/10/04 10:54:52;;;;;;;1999.90;999.90;;;22.80;91.20;;;;;;5093060;28;20028;-83
2021/10/04 10:57:23;;;;;;;1999.90;999.90;;;22.80;91.60;;;;;;5092554;28;20438;-83
2021/10/04 11:00:16;;;;;;;1999.90;999.90;;;22.90;91.10;;;;;;5092693;28;20024;-80
2021/10/04 11:02:49;;;;;;;1999.90;999.90;;;23.10;91.10;;;;;;5092516;28;20022;-85
2021/10/04 11:05:39;;;;;;;1999.90;999.90;;;23.20;90.60;;;;;;5092660;28;20028;-81
2021/10/04 11:08:17;;;;;;;1999.90;999.90;;;23.20;89.80;;;;;;5092927;28;20476;-80
2021/10/04 11:10:48;;;;;;;1999.90;999.90;;;23.30;87.00;;;;;;5094024;28;20024;-82
2021/10/04 11:13:26;;;;;;;1999.90;999.90;;;23.40;88.00;;;;;;5092486;28;20422;-80
2021/10/04 11:15:54;;;;;;;1999.90;999.90;;;23.50;87.30;;;;;;5092577;28;20024;-78
2021/10/04 11:18:21;;;;;;;1999.90;999.90;;;23.50;86.70;;;;;;5092096;28;20047;-82
2021/10/04 11:20:47;;;;;;;1999.90;999.90;;;23.50;87.00;;;;;;5094244;28;20441;-78
2021/10/04 11:23:14;;;;;;;1999.90;999.90;;;23.60;87.80;;;;;;5092671;28;20044;-81
2021/10/04 11:25:52;;;;;;;1999.90;999.90;;;23.60;85.80;;;;;;5092553;28;20024;-82
2021/10/04 11:28:21;;;;;;;1999.90;999.90;;;23.70;86.30;;;;;;5092242;28;20024;-83
2021/10/04 11:30:57;;;;;;;1999.90;999.90;;;23.70;85.00;;;;;;5092199;28;20054;-82
2021/10/04 11:33:28;;;;;;;1999.90;999.90;;;23.70;86.90;;;;;;5091899;28;20024;-81
2021/10/04 11:35:58;;;;;;;1999.90;999.90;;;23.80;88.00;;;;;;5091669;28;20506;-80
2021/10/04 11:38:25;;;;;;;1999.90;999.90;;;23.90;87.20;;;;;;5092280;28;20085;-82
2021/10/04 11:40:51;;;;;;;1999.90;999.90;;;24.00;85.40;;;;;;5092656;28;20541;-81
2021/10/04 11:43:18;;;;;;;1999.90;999.90;;;24.10;84.50;;;;;;5093374;28;20036;-84
2021/10/04 11:45:43;;;;;;;1999.90;999.90;;;24.10;84.60;;;;;;5094178;28;20110;-85
2021/10/04 11:48:09;;;;;;;1999.90;999.90;;;24.20;84.70;;;;;;5094428;28;20066;-81
2021/10/04 11:50:44;;;;;;;1999.90;999.90;;;24.30;83.50;;;;;;5094389;28;20143;-78
2021/10/04 11:53:13;;;;;;;1999.90;999.90;;;24.30;82.90;;;;;;5093981;28;20084;-78
2021/10/04 11:55:40;;;;;;;1999.90;999.90;;;24.30;83.50;;;;;;5093705;28;20028;-78
2021/10/04 11:58:15;;;;;;;1999.90;999.90;;;24.30;82.70;;;;;;5092734;28;20035;-76
2021/10/04 12:00:45;;;;;;;;;;;24.30;84.20;;;;;;5093929;28;20495;-75
2021/10/04 12:03:11;;;;;;;1999.90;999.90;;;24.40;83.30;;;;;;5093155;28;19905;-75
2021/10/04 12:05:36;;;;;;;1999.90;999.90;;;24.40;79.60;;;;;;5092543;28;20046;-75